Time;durP1;ratioP1;P1;durP2;ratioP2;P2;SDS_P1;SDS_P2;PMS_P1;PMS_P2;Temp;Humidity;BMP_temperature;BMP_pressure;BME280_temperature;BME280_humidity;BME280_pressure;Samples;Min_cycle;Max_cycle;Signal;HPM_P1;HPM_P2
2023/02/27 00:01:39;;;;;;;1.00;0.90;;;22.40;53.40;;;;;;5054448;28;20199;-59
2023/02/27 00:04:10;;;;;;;1.20;1.10;;;22.40;53.40;;;;;;5054752;28;20215;-60
2023/02/27 00:06:40;;;;;;;1.10;0.90;;;22.40;53.30;;;;;;5054501;28;20206;-60
2023/02/27 00:09:11;;;;;;;1.45;1.20;;;22.50;53.40;;;;;;5054264;28;20231;-60
2023/02/27 00:11:44;;;;;;;1.55;1.00;;;22.50;53.40;;;;;;5054129;28;20191;-60
2023/02/27 00:14:14;;;;;;;0.88;0.82;;;22.50;53.40;;;;;;5054166;28;20260;-60
2023/02/27 00:16:45;;;;;;;1.27;0.90;;;22.50;53.40;;;;;;5054177;28;20195;-60
2023/02/27 00:19:16;;;;;;;1.85;1.10;;;22.60;53.50;;;;;;5054288;28;20206;-60
2023/02/27 00:21:46;;;;;;;0.70;0.70;;;22.60;53.50;;;;;;5043571;28;20192;-60
2023/02/27 00:24:17;;;;;;;1.25;0.80;;;22.60;53.40;;;;;;5033884;28;20215;-60
2023/02/27 00:26:49;;;;;;;1.02;0.90;;;22.60;53.40;;;;;;5043448;28;20206;-61
2023/02/27 00:29:20;;;;;;;0.90;0.80;;;22.60;53.40;;;;;;5054407;28;20200;-60
2023/02/27 00:31:51;;;;;;;1.33;0.82;;;22.60;53.30;;;;;;5053900;28;20740;-58
2023/02/27 00:34:21;;;;;;;1.38;0.80;;;22.70;53.40;;;;;;5053631;28;20687;-60
2023/02/27 00:36:52;;;;;;;1.20;1.10;;;22.70;53.30;;;;;;5053321;28;20291;-60
2023/02/27 00:39:23;;;;;;;1.30;1.08;;;22.70;53.40;;;;;;5036343;28;20192;-59
2023/02/27 00:41:55;;;;;;;0.93;0.80;;;22.80;53.40;;;;;;5033898;28;20203;-60
2023/02/27 00:44:26;;;;;;;1.45;0.98;;;22.80;53.40;;;;;;5034200;28;20434;-60
2023/02/27 00:46:57;;;;;;;1.23;1.13;;;22.80;53.40;;;;;;5033805;28;20656;-60
2023/02/27 00:49:28;;;;;;;0.90;0.90;;;22.80;53.40;;;;;;5033975;28;20192;-56
2023/02/27 00:52:01;;;;;;;1.52;0.85;;;22.80;53.40;;;;;;5033825;28;20678;-58
2023/02/27 00:54:32;;;;;;;0.95;0.85;;;22.90;53.40;;;;;;5033318;28;20231;-57
2023/02/27 00:57:05;;;;;;;1.15;1.05;;;22.90;53.40;;;;;;5043896;28;20211;-60
2023/02/27 00:59:35;;;;;;;0.98;0.88;;;22.90;53.40;;;;;;5053928;28;20192;-60
2023/02/27 01:02:06;;;;;;;1.48;0.90;;;22.90;53.40;;;;;;5053235;28;20588;-57
2023/02/27 01:04:37;;;;;;;0.80;0.80;;;23.00;53.30;;;;;;5053597;28;20192;-56
2023/02/27 01:07:08;;;;;;;1.42;1.00;;;23.00;53.30;;;;;;5053177;28;20195;-56
2023/02/27 01:09:38;;;;;;;1.08;0.98;;;23.00;53.30;;;;;;5052903;28;20199;-59
2023/02/27 01:12:11;;;;;;;1.00;0.90;;;23.00;53.30;;;;;;5053213;28;20207;-57
2023/02/27 01:14:42;;;;;;;1.30;0.75;;;23.00;53.30;;;;;;5052931;28;20631;-56
2023/02/27 01:17:13;;;;;;;0.80;0.80;;;23.10;53.30;;;;;;5052825;28;20196;-60
2023/02/27 01:19:44;;;;;;;1.40;1.02;;;23.10;53.40;;;;;;5052754;28;20203;-55
2023/02/27 01:22:14;;;;;;;1.20;0.95;;;23.10;53.30;;;;;;5053120;28;20681;-57
2023/02/27 01:24:45;;;;;;;1.10;1.00;;;23.10;53.30;;;;;;5053202;28;20195;-59
2023/02/27 01:27:18;;;;;;;1.10;1.00;;;23.10;53.30;;;;;;5052804;28;20202;-59
2023/02/27 01:29:48;;;;;;;1.05;0.98;;;23.10;53.30;;;;;;5050298;28;20203;-59
2023/02/27 01:32:19;;;;;;;1.17;1.00;;;23.20;53.30;;;;;;5052627;28;20202;-58
2023/02/27 01:34:50;;;;;;;1.08;0.98;;;23.20;53.30;;;;;;5052754;28;20713;-60
2023/02/27 01:37:21;;;;;;;1.02;0.90;;;23.20;53.30;;;;;;5052720;28;20199;-60
2023/02/27 01:39:51;;;;;;;1.13;0.90;;;23.30;53.40;;;;;;5052985;28;20203;-59
2023/02/27 01:42:28;;;;;;;1.35;1.00;;;23.30;53.30;;;;;;5049167;28;20190;-60
2023/02/27 01:45:32;;;;;;;1.38;1.10;;;23.30;53.30;;;;;;5052634;28;20195;-60
2023/02/27 01:48:12;;;;;;;0.90;0.85;;;23.30;53.30;;;;;;5052691;28;20207;-57
2023/02/27 01:50:50;;;;;;;0.90;0.90;;;23.40;53.30;;;;;;5052308;28;20581;-58
2023/02/27 01:53:24;;;;;;;0.80;0.80;;;23.40;53.20;;;;;;5052142;28;20222;-59
2023/02/27 01:56:00;;;;;;;1.10;1.00;;;23.40;53.20;;;;;;5052489;28;20272;-60
2023/02/27 01:58:32;;;;;;;1.30;0.95;;;23.40;53.20;;;;;;5052579;28;20195;-60
2023/02/27 02:01:03;;;;;;;1.00;0.90;;;23.40;53.30;;;;;;5052671;28;20196;-59
2023/02/27 02:03:41;;;;;;;0.75;0.70;;;23.50;53.30;;;;;;5052310;28;20226;-59
2023/02/27 02:06:12;;;;;;;0.82;0.80;;;23.50;53.30;;;;;;5052320;28;20203;-60
2023/02/27 02:08:46;;;;;;;1.80;1.00;;;23.50;53.30;;;;;;5051457;28;20200;-59
2023/02/27 02:11:19;;;;;;;0.80;0.80;;;23.50;53.30;;;;;;5051933;28;20192;-59
2023/02/27 02:13:54;;;;;;;1.00;0.90;;;23.50;53.30;;;;;;5052154;28;20226;-56
2023/02/27 02:16:53;;;;;;;1.00;1.00;;;23.60;53.20;;;;;;5038074;28;20206;-59
2023/02/27 02:19:55;;;;;;;1.17;0.98;;;23.60;53.20;;;;;;5027505;28;20218;-62
2023/02/27 02:22:47;;;;;;;0.85;0.85;;;23.60;53.10;;;;;;5032188;28;20562;-57
2023/02/27 02:26:01;;;;;;;1.10;1.00;;;23.70;53.20;;;;;;5032125;28;20192;-56
2023/02/27 02:29:01;;;;;;;0.70;0.70;;;23.70;53.20;;;;;;5004939;28;20196;-56
2023/02/27 02:32:03;;;;;;;0.90;0.90;;;23.70;53.20;;;;;;5031893;28;20562;-60
2023/02/27 02:35:03;;;;;;;1.65;0.90;;;23.80;53.20;;;;;;5022380;28;20219;-57
2023/02/27 02:38:03;;;;;;;0.80;0.80;;;23.80;53.10;;;;;;5030144;28;20196;-59
2023/02/27 02:40:41;;;;;;;1.35;0.93;;;23.80;53.00;;;;;;5031565;28;20200;-58
2023/02/27 02:43:16;;;;;;;1.77;0.95;;;23.80;53.00;;;;;;5032257;28;20570;-59
2023/02/27 02:45:55;;;;;;;1.00;0.80;;;23.90;53.00;;;;;;5031806;28;20278;-60
2023/02/27 02:48:32;;;;;;;1.33;0.90;;;23.90;53.00;;;;;;5031229;28;20656;-59
2023/02/27 02:51:11;;;;;;;0.90;0.90;;;23.90;52.90;;;;;;5031064;28;20211;-59
2023/02/27 02:53:49;;;;;;;0.90;0.85;;;24.00;52.90;;;;;;5031488;28;20222;-60
2023/02/27 02:56:27;;;;;;;1.10;1.10;;;24.00;53.00;;;;;;5036826;28;20226;-60
2023/02/27 02:59:03;;;;;;;0.90;0.90;;;24.00;53.00;;;;;;5051563;28;20199;-58
2023/02/27 03:01:37;;;;;;;1.05;0.95;;;24.00;53.00;;;;;;5051815;28;20205;-60
2023/02/27 03:04:12;;;;;;;2.08;1.00;;;24.10;53.00;;;;;;5051343;28;20210;-58
2023/02/27 03:06:47;;;;;;;1.10;1.00;;;24.10;52.90;;;;;;5051551;28;20710;-60
2023/02/27 03:09:22;;;;;;;1.00;0.80;;;24.20;53.00;;;;;;5051689;28;20191;-60
2023/02/27 03:11:57;;;;;;;1.00;0.85;;;24.20;53.00;;;;;;5051235;28;20217;-60
2023/02/27 03:14:33;;;;;;;1.00;1.00;;;24.20;53.00;;;;;;5051075;28;20586;-60
2023/02/27 03:17:09;;;;;;;1.02;0.93;;;24.20;52.90;;;;;;5051189;28;20195;-60
2023/02/27 03:19:45;;;;;;;1.30;0.90;;;24.30;52.90;;;;;;5051436;28;20566;-59
2023/02/27 03:22:21;;;;;;;2.25;1.08;;;24.30;52.80;;;;;;5055096;28;20198;-59
2023/02/27 03:24:54;;;;;;;1.50;1.00;;;24.30;52.70;;;;;;5055654;28;20555;-60
2023/02/27 03:27:31;;;;;;;1.73;0.90;;;24.30;52.70;;;;;;5055081;28;20208;-58
2023/02/27 03:30:08;;;;;;;0.70;0.70;;;24.40;52.70;;;;;;5054736;28;20195;-60
2023/02/27 03:32:44;;;;;;;1.50;1.10;;;24.40;52.60;;;;;;5054683;28;20222;-60
2023/02/27 03:35:15;;;;;;;1.15;1.00;;;24.40;52.60;;;;;;5054991;28;20262;-59
2023/02/27 03:37:58;;;;;;;0.82;0.68;;;24.50;52.60;;;;;;5051175;28;20190;-59
2023/02/27 03:40:33;;;;;;;0.90;0.90;;;24.50;52.50;;;;;;5054878;28;20199;-59
2023/02/27 03:43:12;;;;;;;1.10;0.95;;;24.50;52.40;;;;;;5054919;28;20694;-60
2023/02/27 03:45:51;;;;;;;1.00;0.90;;;24.60;52.70;;;;;;5054936;28;20230;-60
2023/02/27 03:48:22;;;;;;;1.00;0.90;;;24.60;52.40;;;;;;5054531;28;20191;-60
2023/02/27 03:50:52;;;;;;;0.90;0.90;;;24.60;52.30;;;;;;5050899;28;20204;-59
2023/02/27 03:53:29;;;;;;;0.80;0.80;;;24.70;52.40;;;;;;5054689;28;20586;-58
2023/02/27 03:56:02;;;;;;;0.95;0.82;;;24.70;52.30;;;;;;5055261;28;20219;-60
2023/02/27 03:58:35;;;;;;;1.58;0.85;;;24.70;52.30;;;;;;5054757;28;20670;-59
2023/02/27 04:01:06;;;;;;;0.80;0.80;;;24.70;52.30;;;;;;5055048;28;20200;-60
2023/02/27 04:03:42;;;;;;;0.77;0.75;;;24.80;52.30;;;;;;5054992;28;20211;-60
2023/02/27 04:09:08;;;;;;;1.73;0.90;;;24.80;52.10;;;;;;5054780;28;20195;-60
2023/02/27 04:11:55;;;;;;;1.05;0.70;;;24.90;52.10;;;;;;5054479;28;20199;-59
2023/02/27 04:14:43;;;;;;;0.80;0.80;;;24.90;52.20;;;;;;5054967;28;20216;-60
2023/02/27 04:17:29;;;;;;;0.75;0.75;;;24.90;52.00;;;;;;5054398;28;20195;-62
2023/02/27 04:20:27;;;;;;;0.93;0.82;;;24.90;51.90;;;;;;5051493;28;20558;-57
2023/02/27 04:23:04;;;;;;;1.10;1.00;;;25.00;51.90;;;;;;5034721;28;20212;-60
2023/02/27 04:25:53;;;;;;;0.88;0.82;;;25.00;51.90;;;;;;5034582;28;20231;-59
2023/02/27 04:28:32;;;;;;;1.38;0.80;;;25.10;51.90;;;;;;5033268;28;20204;-60
2023/02/27 04:31:16;;;;;;;1.23;1.08;;;25.10;51.90;;;;;;5034257;28;20196;-60
2023/02/27 04:33:51;;;;;;;0.88;0.80;;;25.10;52.00;;;;;;5032901;28;20212;-59
2023/02/27 04:36:30;;;;;;;1.00;0.95;;;25.10;51.90;;;;;;5033720;28;20231;-58
2023/02/27 04:39:07;;;;;;;0.80;0.80;;;25.10;51.90;;;;;;5034085;28;20202;-58
2023/02/27 04:41:43;;;;;;;1.02;0.93;;;25.10;51.80;;;;;;5034008;28;20196;-60
2023/02/27 04:44:15;;;;;;;1.17;1.00;;;25.20;51.90;;;;;;5033928;28;20778;-59
2023/02/27 04:46:49;;;;;;;0.85;0.80;;;25.20;52.00;;;;;;5036116;28;20192;-59
2023/02/27 04:49:24;;;;;;;0.88;0.77;;;25.20;52.00;;;;;;5033577;28;20196;-59
2023/02/27 04:51:58;;;;;;;1.10;0.90;;;25.20;51.90;;;;;;5033421;28;20204;-59
2023/02/27 04:54:33;;;;;;;0.80;0.80;;;25.20;51.80;;;;;;5033479;28;20242;-58
2023/02/27 04:57:07;;;;;;;1.77;0.95;;;25.30;51.90;;;;;;5045428;28;20207;-59
2023/02/27 04:59:42;;;;;;;1.00;0.90;;;25.30;51.90;;;;;;5054115;28;20210;-59
2023/02/27 05:02:18;;;;;;;1.00;0.90;;;25.30;51.80;;;;;;5053269;28;20675;-60
2023/02/27 05:04:51;;;;;;;0.88;0.88;;;25.30;51.80;;;;;;5053601;28;20202;-59
2023/02/27 05:07:25;;;;;;;0.80;0.80;;;25.30;51.80;;;;;;5053188;28;20199;-59
2023/02/27 05:10:00;;;;;;;0.82;0.68;;;25.30;51.80;;;;;;5053212;28;20559;-60
2023/02/27 05:12:36;;;;;;;1.05;0.80;;;25.30;51.70;;;;;;5053401;28;20225;-61
2023/02/27 05:15:11;;;;;;;0.98;0.77;;;25.30;51.70;;;;;;5053221;28;20215;-61
2023/02/27 05:17:47;;;;;;;0.80;0.75;;;25.30;51.70;;;;;;5053204;28;20199;-59
2023/02/27 05:20:18;;;;;;;0.82;0.60;;;25.30;51.70;;;;;;5053230;28;20195;-59
2023/02/27 05:22:52;;;;;;;0.80;0.80;;;25.30;51.70;;;;;;5052628;28;20215;-60
2023/02/27 05:25:29;;;;;;;0.80;0.80;;;25.30;51.70;;;;;;5052597;28;20214;-59
2023/02/27 05:28:04;;;;;;;0.70;0.70;;;25.30;51.70;;;;;;5052959;28;20212;-61
2023/02/27 05:30:38;;;;;;;0.68;0.68;;;25.30;51.70;;;;;;5053311;28;20402;-61
2023/02/27 05:33:16;;;;;;;0.70;0.65;;;25.30;51.70;;;;;;5040181;28;20219;-61
2023/02/27 05:35:53;;;;;;;0.60;0.60;;;25.30;51.70;;;;;;5032936;28;20234;-59
2023/02/27 05:38:27;;;;;;;0.55;0.55;;;25.30;51.70;;;;;;5033327;28;20286;-60
2023/02/27 05:41:02;;;;;;;0.55;0.55;;;25.40;51.60;;;;;;5033072;28;20291;-60
2023/02/27 05:43:36;;;;;;;0.52;0.52;;;25.40;51.70;;;;;;5048126;28;20211;-60
2023/02/27 05:46:11;;;;;;;0.93;0.80;;;25.40;51.60;;;;;;5052824;28;20592;-61
2023/02/27 05:48:47;;;;;;;1.05;0.80;;;25.40;51.60;;;;;;5052932;28;20195;-60
2023/02/27 05:51:20;;;;;;;1.40;1.30;;;25.40;51.70;;;;;;5052369;28;20252;-60
2023/02/27 05:53:56;;;;;;;1.75;1.50;;;25.40;51.70;;;;;;5052303;28;20215;-60
2023/02/27 05:56:30;;;;;;;2.13;1.83;;;25.40;51.70;;;;;;5052114;28;20238;-61
2023/02/27 05:59:06;;;;;;;2.13;1.58;;;25.40;51.70;;;;;;5052567;28;20560;-61
2023/02/27 06:01:37;;;;;;;2.28;1.60;;;25.50;51.80;;;;;;5052744;28;20202;-61
2023/02/27 06:04:09;;;;;;;2.45;1.80;;;25.40;51.70;;;;;;5052305;28;20219;-61
2023/02/27 06:06:41;;;;;;;2.95;1.95;;;25.50;51.80;;;;;;5052382;28;20225;-60
2023/02/27 06:09:15;;;;;;;2.08;1.80;;;25.50;51.70;;;;;;5052074;28;20230;-60
2023/02/27 06:11:46;;;;;;;2.00;1.80;;;25.50;51.70;;;;;;5052079;28;20211;-61
2023/02/27 06:14:17;;;;;;;3.00;1.95;;;25.50;51.70;;;;;;5052005;28;20251;-60
2023/02/27 06:16:48;;;;;;;3.08;1.98;;;25.50;51.60;;;;;;5044887;28;20220;-60
2023/02/27 06:19:20;;;;;;;2.08;1.70;;;25.40;51.50;;;;;;5032342;28;20203;-61
2023/02/27 06:21:51;;;;;;;2.05;1.83;;;25.50;51.40;;;;;;5032053;28;20274;-60
2023/02/27 06:24:22;;;;;;;2.53;1.60;;;25.50;51.40;;;;;;5032128;28;20215;-61
2023/02/27 06:26:52;;;;;;;1.58;1.45;;;25.50;51.30;;;;;;5042196;28;20199;-60
2023/02/27 06:29:23;;;;;;;2.92;1.83;;;25.40;51.20;;;;;;5051524;28;20204;-60
2023/02/27 06:31:54;;;;;;;2.83;1.50;;;25.40;51.20;;;;;;5051316;28;20195;-60
2023/02/27 06:34:26;;;;;;;1.80;1.45;;;25.40;51.20;;;;;;5052222;28;20218;-61
2023/02/27 06:36:57;;;;;;;1.88;1.33;;;25.40;51.10;;;;;;5052014;28;20227;-61
2023/02/27 06:39:28;;;;;;;2.45;1.60;;;25.40;51.20;;;;;;5051587;28;20686;-61
2023/02/27 06:41:58;;;;;;;1.98;1.23;;;25.40;51.00;;;;;;5051551;28;20203;-60
2023/02/27 06:44:29;;;;;;;3.55;1.70;;;25.40;51.00;;;;;;5051680;28;20215;-60
2023/02/27 06:47:00;;;;;;;2.63;1.38;;;25.40;51.00;;;;;;5051654;28;20454;-60
2023/02/27 06:49:32;;;;;;;1.30;1.20;;;25.40;51.00;;;;;;5051669;28;20204;-60
2023/02/27 06:52:03;;;;;;;1.67;1.35;;;25.30;51.00;;;;;;5051764;28;20203;-60
2023/02/27 06:54:34;;;;;;;1.38;1.20;;;25.30;51.00;;;;;;5048296;28;20195;-60
2023/02/27 06:57:04;;;;;;;1.90;1.27;;;25.30;51.00;;;;;;5050896;28;20234;-60
2023/02/27 06:59:35;;;;;;;1.30;1.10;;;25.30;51.00;;;;;;5051990;28;20199;-61
2023/02/27 07:02:06;;;;;;;2.15;1.20;;;25.30;51.00;;;;;;5051287;28;20195;-61
2023/02/27 07:04:38;;;;;;;1.48;0.98;;;25.30;51.00;;;;;;5050754;28;20689;-60
2023/02/27 07:07:09;;;;;;;1.55;1.38;;;25.30;51.00;;;;;;5050968;28;20196;-60
2023/02/27 07:09:40;;;;;;;1.83;1.10;;;25.30;50.90;;;;;;5050992;28;20699;-61
2023/02/27 07:12:11;;;;;;;1.30;1.20;;;25.20;50.90;;;;;;5051216;28;20205;-55
2023/02/27 07:14:41;;;;;;;2.58;0.80;;;25.20;51.00;;;;;;5051434;28;20203;-55
2023/02/27 07:17:12;;;;;;;0.80;0.40;;;25.10;50.80;;;;;;5050952;28;20223;-51
2023/02/27 07:19:45;;;;;;;1.70;0.45;;;25.00;50.90;;;;;;5051296;28;20674;-60
2023/02/27 07:22:15;;;;;;;1.48;0.57;;;24.80;51.20;;;;;;5050916;28;20200;-60
2023/02/27 07:24:46;;;;;;;1.40;0.60;;;24.70;51.50;;;;;;5051011;28;20199;-59
2023/02/27 07:27:17;;;;;;;1.55;0.55;;;24.50;51.70;;;;;;5050945;28;20214;-60
2023/02/27 07:29:47;;;;;;;1.63;0.57;;;24.50;51.80;;;;;;5050763;28;20202;-60
2023/02/27 07:32:18;;;;;;;1.00;0.40;;;24.50;51.80;;;;;;5050743;28;20199;-60
2023/02/27 07:34:51;;;;;;;0.90;0.60;;;24.40;51.90;;;;;;5051031;28;20536;-59
2023/02/27 07:37:21;;;;;;;1.05;0.60;;;24.40;51.90;;;;;;5036232;28;20719;-60
2023/02/27 07:39:52;;;;;;;1.52;0.47;;;24.40;52.00;;;;;;5030834;28;20200;-60
2023/02/27 07:42:23;;;;;;;1.15;0.60;;;24.40;52.00;;;;;;5038880;28;20188;-60
2023/02/27 07:44:53;;;;;;;1.75;0.52;;;24.40;52.00;;;;;;5050543;28;20199;-60
2023/02/27 07:47:24;;;;;;;1.90;0.60;;;24.40;52.00;;;;;;5050364;28;20199;-59
2023/02/27 07:49:56;;;;;;;1.50;0.75;;;24.40;52.00;;;;;;5047215;28;20210;-60
2023/02/27 07:52:28;;;;;;;1.50;0.60;;;24.40;52.00;;;;;;5050794;28;20199;-60
2023/02/27 07:54:58;;;;;;;0.60;0.40;;;24.40;52.00;;;;;;5051073;28;20206;-60
2023/02/27 07:57:29;;;;;;;1.90;0.50;;;24.40;52.00;;;;;;5050772;28;20227;-60
2023/02/27 08:00:00;;;;;;;1.73;0.60;;;24.30;52.00;;;;;;5051324;28;20202;-59
2023/02/27 08:02:31;;;;;;;0.55;0.55;;;24.40;52.00;;;;;;5050624;28;20219;-60
2023/02/27 08:05:03;;;;;;;1.63;0.60;;;24.40;52.00;;;;;;5050393;28;20231;-59
2023/02/27 08:07:35;;;;;;;1.60;0.60;;;24.30;52.00;;;;;;5052668;28;20207;-60
2023/02/27 08:10:06;;;;;;;0.52;0.45;;;24.30;52.00;;;;;;5054496;28;20218;-60
2023/02/27 08:12:37;;;;;;;1.17;0.68;;;24.30;51.90;;;;;;5054348;28;20223;-60
2023/02/27 08:15:08;;;;;;;0.82;0.50;;;24.30;52.00;;;;;;5054029;28;20214;-60
2023/02/27 08:17:39;;;;;;;1.20;0.50;;;24.30;51.90;;;;;;5054103;28;20227;-60
2023/02/27 08:20:13;;;;;;;1.17;0.70;;;24.30;51.90;;;;;;5054217;28;20199;-60
2023/02/27 08:22:43;;;;;;;0.93;0.50;;;24.30;51.90;;;;;;5054446;28;20246;-60
2023/02/27 08:25:14;;;;;;;0.98;0.50;;;24.30;51.90;;;;;;5044960;28;20196;-60
2023/02/27 08:27:45;;;;;;;1.05;0.57;;;24.30;51.90;;;;;;5051121;28;20199;-60
2023/02/27 08:30:16;;;;;;;0.57;0.45;;;24.30;51.90;;;;;;5054164;28;20253;-61
2023/02/27 08:32:47;;;;;;;0.50;0.50;;;24.30;51.90;;;;;;5053469;28;20634;-60
2023/02/27 08:35:20;;;;;;;0.63;0.60;;;24.30;51.80;;;;;;5053616;28;20258;-61
2023/02/27 08:37:51;;;;;;;1.08;0.50;;;24.20;51.80;;;;;;5053708;28;20715;-60
2023/02/27 08:40:21;;;;;;;0.98;0.60;;;24.30;51.90;;;;;;5054060;28;20196;-60
2023/02/27 08:45:41;;;;;;;0.90;0.52;;;24.20;51.80;;;;;;5052226;28;20203;-60
2023/02/27 08:48:14;;;;;;;0.70;0.40;;;24.20;51.80;;;;;;5053631;28;20200;-60
2023/02/27 08:51:15;;;;;;;0.68;0.60;;;24.20;51.80;;;;;;5054097;28;20199;-61
2023/02/27 08:53:46;;;;;;;1.30;0.57;;;24.20;51.80;;;;;;5050756;28;20206;-60
2023/02/27 08:56:17;;;;;;;0.75;0.45;;;24.20;51.80;;;;;;5053465;28;20219;-60
2023/02/27 08:58:47;;;;;;;0.85;0.60;;;24.10;51.70;;;;;;5053524;28;20202;-60
2023/02/27 09:01:18;;;;;;;1.30;0.70;;;24.20;52.40;;;;;;5053909;28;20686;-60
2023/02/27 09:03:49;;;;;;;1.02;0.60;;;24.10;51.70;;;;;;5053173;28;20215;-60
2023/02/27 09:06:21;;;;;;;1.05;0.50;;;24.10;51.70;;;;;;5053465;28;20195;-59
2023/02/27 09:08:52;;;;;;;1.08;0.60;;;24.10;51.70;;;;;;5053340;28;20203;-60
2023/02/27 09:11:23;;;;;;;0.43;0.43;;;24.00;51.60;;;;;;5052705;28;20203;-60
2023/02/27 09:13:54;;;;;;;0.57;0.50;;;24.00;51.60;;;;;;5052656;28;20219;-61
2023/02/27 09:16:25;;;;;;;0.90;0.70;;;24.00;51.60;;;;;;5052791;28;20219;-60
2023/02/27 09:18:55;;;;;;;0.50;0.50;;;24.00;51.70;;;;;;5052664;28;20191;-59
2023/02/27 09:21:28;;;;;;;0.40;0.40;;;24.00;51.70;;;;;;5052831;28;20198;-61
2023/02/27 09:23:59;;;;;;;0.75;0.60;;;24.00;51.70;;;;;;5053116;28;20762;-60
2023/02/27 09:26:30;;;;;;;1.05;0.70;;;24.00;51.70;;;;;;5053245;28;20203;-60
2023/02/27 09:29:01;;;;;;;1.17;0.60;;;23.90;51.70;;;;;;5053247;28;21073;-60
2023/02/27 09:31:31;;;;;;;1.52;0.70;;;23.90;51.70;;;;;;5052975;28;20191;-60
2023/02/27 09:34:02;;;;;;;0.70;0.60;;;23.90;51.70;;;;;;5052533;28;20220;-60
2023/02/27 09:36:35;;;;;;;0.40;0.40;;;23.90;51.70;;;;;;5050245;28;20219;-60
2023/02/27 09:39:08;;;;;;;0.95;0.60;;;23.80;51.70;;;;;;5050859;28;20206;-59
2023/02/27 09:42:01;;;;;;;0.82;0.60;;;23.90;51.70;;;;;;5052626;28;20602;-60
2023/02/27 09:44:41;;;;;;;0.52;0.50;;;23.80;51.60;;;;;;5048578;28;20617;-60
2023/02/27 09:47:17;;;;;;;0.70;0.70;;;23.80;52.20;;;;;;5052603;28;20199;-60
2023/02/27 09:50:01;;;;;;;0.82;0.50;;;23.80;51.60;;;;;;5052354;28;20265;-61
2023/02/27 09:52:36;;;;;;;1.55;0.57;;;23.80;51.60;;;;;;5052689;28;20223;-60
2023/02/27 09:55:13;;;;;;;0.50;0.50;;;23.80;51.60;;;;;;5049434;28;20187;-60
2023/02/27 09:57:49;;;;;;;1.10;0.60;;;23.80;51.60;;;;;;5052789;28;20227;-60
2023/02/27 10:00:36;;;;;;;0.80;0.52;;;23.70;51.60;;;;;;5052899;28;20565;-60
2023/02/27 10:03:18;;;;;;;2.05;0.50;;;23.70;51.60;;;;;;5052265;28;20721;-60
2023/02/27 10:05:59;;;;;;;0.70;0.50;;;23.70;51.60;;;;;;5052186;28;20302;-60
2023/02/27 10:08:37;;;;;;;0.70;0.60;;;23.70;51.60;;;;;;5052177;28;20217;-60
2023/02/27 10:11:09;;;;;;;0.50;0.50;;;23.70;51.70;;;;;;5052165;28;20652;-59
2023/02/27 10:13:56;;;;;;;1.40;0.50;;;23.70;51.70;;;;;;5052102;28;20219;-60
2023/02/27 10:16:28;;;;;;;0.50;0.40;;;23.60;51.60;;;;;;5052356;28;20203;-60
2023/02/27 10:19:01;;;;;;;0.68;0.63;;;23.60;51.60;;;;;;5051867;28;20207;-60
2023/02/27 10:21:35;;;;;;;1.15;0.70;;;23.60;51.60;;;;;;5052030;28;20203;-59
2023/02/27 10:24:20;;;;;;;0.80;0.60;;;23.60;51.50;;;;;;5052032;28;20214;-60
2023/02/27 10:26:52;;;;;;;0.68;0.50;;;23.50;51.50;;;;;;5048645;28;20204;-60
2023/02/27 10:29:29;;;;;;;0.75;0.60;;;23.50;51.50;;;;;;5031389;28;20200;-59
2023/02/27 10:32:04;;;;;;;0.55;0.40;;;23.50;51.50;;;;;;5031183;28;20262;-60
2023/02/27 10:34:36;;;;;;;0.65;0.57;;;23.50;51.50;;;;;;5032088;28;20195;-60
2023/02/27 10:37:08;;;;;;;0.65;0.60;;;23.50;51.50;;;;;;5032126;28;20227;-60
2023/02/27 10:39:48;;;;;;;0.70;0.50;;;23.40;51.50;;;;;;5032537;28;20207;-60
2023/02/27 10:42:20;;;;;;;0.50;0.50;;;23.40;51.50;;;;;;5031666;28;20208;-60
2023/02/27 10:44:53;;;;;;;0.40;0.40;;;23.40;51.50;;;;;;5032005;28;20192;-60
2023/02/27 10:47:26;;;;;;;1.17;0.50;;;23.40;51.60;;;;;;5031712;28;20204;-60
2023/02/27 10:49:59;;;;;;;1.23;0.55;;;23.40;51.60;;;;;;5031616;28;20208;-60
2023/02/27 10:52:29;;;;;;;1.45;0.50;;;23.30;51.50;;;;;;5031289;28;20704;-60
2023/02/27 10:55:20;;;;;;;0.88;0.50;;;23.30;51.50;;;;;;5034013;28;20195;-60
2023/02/27 10:57:51;;;;;;;0.50;0.50;;;23.30;51.50;;;;;;5049147;28;20235;-60
2023/02/27 11:00:36;;;;;;;0.50;0.50;;;23.30;51.50;;;;;;5052007;28;20563;-60
2023/02/27 11:03:08;;;;;;;0.50;0.50;;;23.30;51.50;;;;;;5051378;28;20306;-60
2023/02/27 11:05:39;;;;;;;0.38;0.38;;;23.30;51.50;;;;;;5051819;28;20199;-60
2023/02/27 11:08:21;;;;;;;0.65;0.55;;;23.30;51.50;;;;;;5051553;28;20207;-60
2023/02/27 11:11:05;;;;;;;0.50;0.45;;;23.20;51.50;;;;;;5051564;28;20662;-60
2023/02/27 11:13:38;;;;;;;0.57;0.50;;;23.20;51.50;;;;;;5051342;28;20219;-61
2023/02/27 11:16:13;;;;;;;0.35;0.35;;;23.20;51.50;;;;;;5050881;28;20207;-60
2023/02/27 11:18:45;;;;;;;0.85;0.50;;;23.10;51.50;;;;;;5051035;28;20223;-59
2023/02/27 11:21:22;;;;;;;0.70;0.50;;;23.10;51.50;;;;;;5051298;28;20290;-60
2023/02/27 11:24:01;;;;;;;0.43;0.43;;;23.10;51.60;;;;;;5051145;28;20750;-60
2023/02/27 11:26:36;;;;;;;0.70;0.50;;;23.00;51.50;;;;;;5051268;28;20230;-60
2023/02/27 11:29:16;;;;;;;0.70;0.65;;;23.10;51.60;;;;;;5050733;28;20641;-60
2023/02/27 11:31:55;;;;;;;0.47;0.40;;;23.00;51.50;;;;;;5050606;28;20202;-60
2023/02/27 11:34:30;;;;;;;1.10;0.52;;;23.00;51.50;;;;;;5041595;28;20219;-60
2023/02/27 11:37:03;;;;;;;0.70;0.60;;;23.00;51.50;;;;;;5031072;28;20226;-60
2023/02/27 11:39:38;;;;;;;0.40;0.40;;;23.00;51.60;;;;;;5031001;28;20670;-60
2023/02/27 11:42:28;;;;;;;0.60;0.50;;;23.00;51.50;;;;;;5032603;28;20199;-60
2023/02/27 11:45:02;;;;;;;0.93;0.60;;;23.00;51.60;;;;;;5034996;28;20215;-60
2023/02/27 11:47:36;;;;;;;0.50;0.50;;;22.90;51.50;;;;;;5047642;28;20199;-60
2023/02/27 11:50:41;;;;;;;0.52;0.50;;;22.90;51.50;;;;;;5054385;28;20203;-60
2023/02/27 11:53:47;;;;;;;0.52;0.52;;;22.90;51.50;;;;;;5054738;28;20215;-60
2023/02/27 11:56:22;;;;;;;0.80;0.32;;;22.80;51.50;;;;;;5008656;28;20199;-60
2023/02/27 11:59:04;;;;;;;0.52;0.47;;;22.80;51.50;;;;;;5054907;28;20229;-60
2023/02/27 12:01:40;;;;;;;0.30;0.30;;;22.80;51.50;;;;;;5055611;28;20690;-60
2023/02/27 12:04:19;;;;;;;0.40;0.40;;;22.80;51.50;;;;;;5054378;28;20222;-60
2023/02/27 12:06:54;;;;;;;1.05;0.47;;;22.80;51.60;;;;;;5054219;28;20196;-60
2023/02/27 12:09:37;;;;;;;0.40;0.40;;;22.70;51.50;;;;;;5054549;28;20199;-59
2023/02/27 12:12:17;;;;;;;0.38;0.38;;;22.70;51.60;;;;;;5054816;28;20273;-59
2023/02/27 12:14:55;;;;;;;0.52;0.50;;;22.70;51.60;;;;;;5054730;28;20214;-60
2023/02/27 12:17:31;;;;;;;0.73;0.50;;;22.70;51.50;;;;;;5054239;28;20701;-60
2023/02/27 12:20:19;;;;;;;0.63;0.60;;;22.70;51.60;;;;;;5054237;28;20230;-60
2023/02/27 12:22:52;;;;;;;0.50;0.50;;;22.60;51.60;;;;;;5053077;28;20269;-60
2023/02/27 12:25:36;;;;;;;0.50;0.50;;;22.60;51.50;;;;;;5054376;28;20196;-60
2023/02/27 12:28:14;;;;;;;1.48;0.60;;;22.60;51.60;;;;;;5034691;28;20672;-60
2023/02/27 12:30:53;;;;;;;0.63;0.50;;;22.60;51.60;;;;;;5034419;28;20196;-60
2023/02/27 12:33:29;;;;;;;0.50;0.50;;;22.50;51.50;;;;;;5034343;28;20216;-60
2023/02/27 12:36:03;;;;;;;0.50;0.43;;;22.50;51.50;;;;;;5034081;28;20196;-60
2023/02/27 12:38:34;;;;;;;0.60;0.60;;;22.50;51.60;;;;;;5033916;28;20226;-60
2023/02/27 12:41:26;;;;;;;0.40;0.40;;;22.50;51.60;;;;;;5034072;28;20212;-60
2023/02/27 12:44:17;;;;;;;0.52;0.30;;;22.40;51.60;;;;;;5034330;28;20231;-60
2023/02/27 12:46:57;;;;;;;0.40;0.40;;;22.40;51.60;;;;;;5034015;28;20196;-61
2023/02/27 12:49:36;;;;;;;0.40;0.40;;;22.40;51.60;;;;;;5036331;28;20188;-59
2023/02/27 12:52:21;;;;;;;0.38;0.38;;;22.40;51.60;;;;;;5034293;28;20199;-58
2023/02/27 12:55:00;;;;;;;0.70;0.50;;;22.40;51.60;;;;;;5032842;28;20212;-60
2023/02/27 12:58:00;;;;;;;0.50;0.50;;;22.40;51.60;;;;;;5048629;28;20222;-60
2023/02/27 13:00:37;;;;;;;0.70;0.50;;;22.40;51.60;;;;;;5054042;28;20200;-60
2023/02/27 13:03:18;;;;;;;0.75;0.52;;;22.30;51.50;;;;;;5053312;28;20222;-59
2023/02/27 13:06:00;;;;;;;0.47;0.47;;;22.30;51.60;;;;;;5053185;28;20202;-58
2023/02/27 13:08:51;;;;;;;0.73;0.40;;;22.30;51.60;;;;;;5053160;28;20633;-60
2023/02/27 13:11:31;;;;;;;0.90;0.60;;;22.30;51.60;;;;;;5053288;28;20196;-60
2023/02/27 13:14:04;;;;;;;0.30;0.30;;;22.30;51.60;;;;;;5053386;28;20219;-60
2023/02/27 13:16:42;;;;;;;0.45;0.40;;;22.20;51.50;;;;;;5053378;28;20203;-61
2023/02/27 13:19:18;;;;;;;0.40;0.40;;;22.20;51.60;;;;;;5052808;28;20234;-60
2023/02/27 13:21:55;;;;;;;0.47;0.40;;;22.20;51.60;;;;;;5052656;28;20203;-60
2023/02/27 13:24:30;;;;;;;0.35;0.35;;;22.20;51.70;;;;;;5052785;28;20219;-60
2023/02/27 13:27:05;;;;;;;0.55;0.50;;;22.10;51.60;;;;;;5051112;28;20210;-59
2023/02/27 13:29:40;;;;;;;0.52;0.50;;;22.10;51.60;;;;;;5051985;28;20655;-59
2023/02/27 13:32:26;;;;;;;0.40;0.40;;;22.10;51.60;;;;;;5053160;28;20655;-61
2023/02/27 13:35:03;;;;;;;0.73;0.52;;;22.10;51.60;;;;;;5052676;28;20205;-60
2023/02/27 13:37:55;;;;;;;0.50;0.50;;;22.10;51.60;;;;;;5053034;28;20199;-59